Pittsburg, California
Current Conditions -  °F | °C
As of 12:20 AM on Sunday 21 Dec 2014 (Local Time) from KCCR Reporting Station
Overcast Overcast  
Wind Chill: 58°   Ceiling: 2600
Heat Index: 58°   Visibility: 10mi
Dew Point: 54°   Wind: 9mph
Humidity: 87%   Direction: 190°S
Pressure: 30.23"   Gusts: NA
Location:  38.02°N, 121.88°W
Report Text: KCCR 210820Z 19008KT 10SM BKN026 OVC032 14/12 A3023 RMK AO2 T01440122
Loading
Personal Weather Stations






























Interactive Weather Map New forecast layout! Learn more

10-Day Weather Forecast

Advertisements
Track Severe Weather on mobile